Time;durP1;ratioP1;P1;durP2;ratioP2;P2;SDS_P1;SDS_P2;PMS_P1;PMS_P2;Temp;Humidity;BMP_temperature;BMP_pressure;BME280_temperature;BME280_humidity;BME280_pressure;Samples;Min_cycle;Max_cycle;Signal;HPM_P1;HPM_P2
2022/02/08 00:00:41;;;;;;;2.88;1.10;;;;;;;;;;5072873;28;20079;-54
2022/02/08 00:03:08;;;;;;;2.63;1.20;;;;;;;;;;5073339;28;20028;-47
2022/02/08 00:05:34;;;;;;;1.52;0.90;;;;;;;;;;5073200;28;20078;-47
2022/02/08 00:08:01;;;;;;;1.98;1.00;;;;;;;;;;5072399;28;20308;-47
2022/02/08 00:10:28;;;;;;;2.80;1.10;;;;;;;;;;5072840;28;20432;-47
2022/02/08 00:12:54;;;;;;;1.33;0.80;;;;;;;;;;5071975;28;20040;-47
2022/02/08 00:15:20;;;;;;;2.10;1.02;;;;;;;;;;5072164;28;20078;-47
2022/02/08 00:17:47;;;;;;;3.20;1.20;;;;;;;;;;5061643;28;20060;-47
2022/02/08 00:20:13;;;;;;;3.30;1.30;;;;;;;;;;5062522;28;20029;-50
2022/02/08 00:22:39;;;;;;;1.98;0.98;;;;;;;;;;5063106;28;20133;-54
2022/02/08 00:25:06;;;;;;;1.40;0.90;;;;;;;;;;5062112;28;20029;-46
2022/02/08 00:27:32;;;;;;;1.90;0.95;;;;;;;;;;5061180;28;20087;-47
2022/02/08 00:29:58;;;;;;;1.63;1.00;;;;;;;;;;5065845;28;20632;-47
2022/02/08 00:32:24;;;;;;;2.22;1.17;;;;;;;;;;5063004;28;20039;-46
2022/02/08 00:34:50;;;;;;;2.13;0.90;;;;;;;;;;5061183;28;20444;-47
2022/02/08 00:37:16;;;;;;;2.17;0.93;;;;;;;;;;5052669;28;20123;-46
2022/02/08 00:39:42;;;;;;;1.73;0.75;;;;;;;;;;5080271;28;20439;-50
2022/02/08 00:42:11;;;;;;;2.65;1.00;;;;;;;;;;5083446;28;20050;-47
2022/02/08 00:44:49;;;;;;;3.45;0.90;;;;;;;;;;5081199;28;20027;-47
2022/02/08 00:49:45;;;;;;;2.53;0.77;;;;;;;;;;5082101;28;20401;-47
2022/02/08 00:52:15;;;;;;;1.70;1.05;;;;;;;;;;5083775;28;20024;-47
2022/02/08 00:54:45;;;;;;;3.25;1.20;;;;;;;;;;5084582;28;20020;-53
2022/02/08 00:57:11;;;;;;;0.98;0.50;;;;;;;;;;5080880;28;20020;-48
2022/02/08 00:59:37;;;;;;;2.10;1.10;;;;;;;;;;5083360;28;20081;-52
2022/02/08 01:02:05;;;;;;;2.42;1.35;;;;;;;;;;5083393;28;20068;-46
2022/02/08 01:04:31;;;;;;;5.00;0.98;;;;;;;;;;5083562;28;20050;-48
2022/02/08 01:06:59;;;;;;;1.70;0.90;;;;;;;;;;5080807;28;20804;-47
2022/02/08 01:12:31;;;;;;;2.53;1.08;;;;;;;;;;5039161;28;20120;-50
2022/02/08 01:14:58;;;;;;;2.28;0.85;;;;;;;;;;5037438;28;20098;-47
2022/02/08 01:17:25;;;;;;;2.50;0.75;;;;;;;;;;5036989;28;20044;-47
2022/02/08 01:19:57;;;;;;;1.98;0.90;;;;;;;;;;5040903;28;20037;-49
2022/02/08 01:22:23;;;;;;;1.02;0.50;;;;;;;;;;5049465;28;20072;-47
2022/02/08 01:24:51;;;;;;;2.42;1.08;;;;;;;;;;5048840;28;20121;-47
2022/02/08 01:27:18;;;;;;;2.78;1.00;;;;;;;;;;5032677;28;20386;-47
2022/02/08 01:40:16;;;;;;;2.33;1.17;;;;;;;;;;5049107;28;20564;-47
2022/02/08 01:50:34;;;;;;;1.50;0.88;;;;;;;;;;5091852;28;20036;-49
2022/02/08 01:53:00;;;;;;;2.63;1.38;;;;;;;;;;5090974;28;20648;-47
2022/02/08 01:55:26;;;;;;;2.53;1.30;;;;;;;;;;5091841;28;20024;-47
2022/02/08 01:57:52;;;;;;;1.85;0.65;;;;;;;;;;5090929;28;20028;-46
2022/02/08 02:00:19;;;;;;;1.77;0.80;;;;;;;;;;5091366;28;20370;-48
2022/02/08 02:02:46;;;;;;;1.38;0.70;;;;;;;;;;5090656;28;20385;-47
2022/02/08 02:05:12;;;;;;;2.53;0.80;;;;;;;;;;5091238;28;20485;-47
2022/02/08 02:07:48;;;;;;;2.20;0.77;;;;;;;;;;5092151;28;20590;-47
2022/02/08 02:10:14;;;;;;;2.97;0.90;;;;;;;;;;5091887;28;20031;-47
2022/02/08 02:12:54;;;;;;;1.58;0.70;;;;;;;;;;5091236;28;20031;-54
2022/02/08 02:15:21;;;;;;;1.20;0.70;;;;;;;;;;5091316;28;20055;-47
2022/02/08 02:17:47;;;;;;;2.45;0.90;;;;;;;;;;5090888;28;20028;-47
2022/02/08 02:20:13;;;;;;;1.83;0.98;;;;;;;;;;5091795;28;20030;-48
2022/02/08 02:22:39;;;;;;;1.83;0.85;;;;;;;;;;5091696;28;20024;-48
2022/02/08 02:25:05;;;;;;;1.10;0.60;;;;;;;;;;5090698;28;20078;-47
2022/02/08 02:27:31;;;;;;;2.20;1.08;;;;;;;;;;5091407;28;20047;-53
2022/02/08 02:29:57;;;;;;;2.92;1.20;;;;;;;;;;5089197;28;20107;-49
2022/02/08 02:32:23;;;;;;;1.80;0.77;;;;;;;;;;5091705;28;20020;-47
2022/02/08 02:34:50;;;;;;;1.10;0.60;;;;;;;;;;5090122;28;20024;-48
2022/02/08 02:37:18;;;;;;;2.25;1.17;;;;;;;;;;5085178;28;20464;-47
2022/02/08 02:39:44;;;;;;;2.15;0.70;;;;;;;;;;5070723;28;20100;-54
2022/02/08 02:42:13;;;;;;;1.80;0.70;;;;;;;;;;5071356;28;20828;-48
2022/02/08 02:44:40;;;;;;;1.33;0.80;;;;;;;;;;5073836;28;20418;-47
2022/02/08 02:47:06;;;;;;;1.25;0.85;;;;;;;;;;5056026;28;20028;-47
2022/02/08 02:49:32;;;;;;;1.80;0.70;;;;;;;;;;5074372;28;20068;-53
2022/02/08 02:51:58;;;;;;;3.40;1.10;;;;;;;;;;5073842;28;20076;-46
2022/02/08 02:54:25;;;;;;;1.25;0.70;;;;;;;;;;5074720;28;20059;-47
2022/02/08 02:56:51;;;;;;;1.73;0.88;;;;;;;;;;5074058;28;20055;-47
2022/02/08 02:59:19;;;;;;;1.23;0.60;;;;;;;;;;5074229;28;20029;-47
2022/02/08 03:18:38;;;;;;;0.95;0.55;;;;;;;;;;5040079;28;20037;-46
2022/02/08 03:21:05;;;;;;;1.70;0.68;;;;;;;;;;5072946;28;20576;-48
2022/02/08 03:23:31;;;;;;;1.88;0.90;;;;;;;;;;5074088;28;20218;-47
2022/02/08 03:25:57;;;;;;;2.00;0.90;;;;;;;;;;5073350;28;20029;-48
2022/02/08 03:28:23;;;;;;;1.80;0.60;;;;;;;;;;5074127;28;20032;-47
2022/02/08 03:30:49;;;;;;;1.73;1.02;;;;;;;;;;5072911;28;20028;-47
2022/02/08 03:33:17;;;;;;;1.35;0.90;;;;;;;;;;5073947;28;20044;-47
2022/02/08 03:35:43;;;;;;;2.72;0.80;;;;;;;;;;5055498;28;20017;-54
2022/02/08 03:38:11;;;;;;;3.25;0.80;;;;;;;;;;5073414;28;20056;-48
2022/02/08 03:40:41;;;;;;;1.20;0.85;;;;;;;;;;5073979;28;20023;-47
2022/02/08 03:43:15;;;;;;;2.42;1.20;;;;;;;;;;5073171;28;20020;-49
2022/02/08 03:45:44;;;;;;;2.60;1.15;;;;;;;;;;5073219;28;20031;-47
2022/02/08 03:48:13;;;;;;;1.10;0.70;;;;;;;;;;5072689;28;20028;-47
2022/02/08 03:50:39;;;;;;;1.40;0.80;;;;;;;;;;5073686;28;20024;-48
2022/02/08 03:53:05;;;;;;;1.00;0.60;;;;;;;;;;5072960;28;20021;-47
2022/02/08 03:55:31;;;;;;;2.25;0.52;;;;;;;;;;5073298;28;20448;-48
2022/02/08 03:57:57;;;;;;;1.75;0.68;;;;;;;;;;5072726;28;20033;-47
2022/02/08 04:00:26;;;;;;;1.23;0.50;;;;;;;;;;5073088;28;20077;-48
2022/02/08 04:02:55;;;;;;;1.58;1.00;;;;;;;;;;5072815;28;20374;-47
2022/02/08 04:05:28;;;;;;;3.20;0.85;;;;;;;;;;5073723;28;20458;-47
2022/02/08 04:07:58;;;;;;;1.00;0.70;;;;;;;;;;5072548;28;20107;-47
2022/02/08 04:10:27;;;;;;;2.03;0.73;;;;;;;;;;5073060;28;20462;-47
2022/02/08 04:13:17;;;;;;;2.50;0.80;;;;;;;;;;5071988;28;20029;-46
2022/02/08 04:32:26;;;;;;;1.92;0.80;;;;;;;;;;5071874;28;20058;-47
2022/02/08 04:42:59;;;;;;;1.17;0.43;;;;;;;;;;5059776;28;20033;-48
2022/02/08 04:45:35;;;;;;;1.23;0.70;;;;;;;;;;5063217;28;20373;-47
2022/02/08 04:48:09;;;;;;;1.25;0.55;;;;;;;;;;5071817;28;20115;-47
2022/02/08 04:50:37;;;;;;;2.05;1.13;;;;;;;;;;5072260;28;20028;-47
2022/02/08 04:53:11;;;;;;;1.50;0.60;;;;;;;;;;5053820;28;20020;-47
2022/02/08 04:56:09;;;;;;;0.75;0.65;;;;;;;;;;5072152;28;20020;-47
2022/02/08 04:58:34;;;;;;;1.58;1.00;;;;;;;;;;5071140;28;20063;-47
2022/02/08 05:01:12;;;;;;;2.30;1.05;;;;;;;;;;5071394;28;20016;-47
2022/02/08 05:42:22;;;;;;;3.25;0.80;;;;;;;;;;5059626;28;19912;-47
2022/02/08 05:44:56;;;;;;;1.83;0.70;;;;;;;;;;5060771;28;20020;-52
2022/02/08 05:47:22;;;;;;;0.73;0.60;;;;;;;;;;5063371;28;20032;-46
2022/02/08 05:50:04;;;;;;;2.00;0.73;;;;;;;;;;5060819;28;20381;-54
2022/02/08 05:52:46;;;;;;;2.08;0.73;;;;;;;;;;5060206;28;20466;-47
2022/02/08 05:55:12;;;;;;;1.20;0.70;;;;;;;;;;5061300;28;20021;-47
2022/02/08 05:57:38;;;;;;;1.85;0.85;;;;;;;;;;5064378;28;20112;-47
2022/02/08 06:00:05;;;;;;;2.20;0.77;;;;;;;;;;5044917;28;20108;-47
2022/02/08 06:02:31;;;;;;;2.15;1.02;;;;;;;;;;5060449;28;20025;-47
2022/02/08 06:04:57;;;;;;;1.25;0.77;;;;;;;;;;5063257;28;20033;-47
2022/02/08 06:07:24;;;;;;;1.92;0.70;;;;;;;;;;5053493;28;20029;-47
2022/02/08 06:09:54;;;;;;;2.55;1.17;;;;;;;;;;5068127;28;20389;-48
2022/02/08 06:12:23;;;;;;;1.92;0.82;;;;;;;;;;5071523;28;20107;-47
2022/02/08 06:14:58;;;;;;;3.20;0.98;;;;;;;;;;5070659;28;20020;-53
2022/02/08 06:17:25;;;;;;;2.70;0.70;;;;;;;;;;5072639;28;20075;-47
2022/02/08 06:19:55;;;;;;;2.45;0.70;;;;;;;;;;5074253;28;20143;-49
2022/02/08 06:22:21;;;;;;;1.08;0.73;;;;;;;;;;5075473;28;20485;-48
2022/02/08 06:24:47;;;;;;;1.42;0.80;;;;;;;;;;5075134;28;20064;-54
2022/02/08 06:27:13;;;;;;;2.58;0.70;;;;;;;;;;5073894;28;20489;-47
2022/02/08 06:29:38;;;;;;;1.25;0.70;;;;;;;;;;5073375;28;20024;-48
2022/02/08 06:32:05;;;;;;;3.40;1.02;;;;;;;;;;5073695;28;20043;-47
2022/02/08 06:34:32;;;;;;;2.03;0.95;;;;;;;;;;5073724;28;20020;-47
2022/02/08 06:37:06;;;;;;;1.88;0.70;;;;;;;;;;5072826;28;20118;-49
2022/02/08 06:39:35;;;;;;;2.03;0.73;;;;;;;;;;5057140;28;20393;-46
2022/02/08 06:42:02;;;;;;;2.00;0.90;;;;;;;;;;5073819;28;20032;-47
2022/02/08 06:44:28;;;;;;;2.33;0.60;;;;;;;;;;5074697;28;20060;-48
2022/02/08 06:46:54;;;;;;;2.15;0.85;;;;;;;;;;5056253;28;20035;-48
2022/02/08 06:49:20;;;;;;;3.55;0.80;;;;;;;;;;5074097;28;20028;-47
2022/02/08 06:51:46;;;;;;;2.92;0.60;;;;;;;;;;5072897;28;20029;-52
2022/02/08 06:54:12;;;;;;;2.50;0.95;;;;;;;;;;5071690;28;20024;-47
2022/02/08 06:56:38;;;;;;;3.58;0.88;;;;;;;;;;5074465;28;20020;-49
2022/02/08 06:59:07;;;;;;;3.22;0.85;;;;;;;;;;5055863;28;20102;-47
2022/02/08 07:01:35;;;;;;;5.18;0.95;;;;;;;;;;5074646;28;20020;-48
2022/02/08 07:04:05;;;;;;;9.45;0.75;;;;;;;;;;5073296;28;20103;-46
2022/02/08 07:06:31;;;;;;;6.13;1.42;;;;;;;;;;5074497;28;20377;-47
2022/02/08 07:08:57;;;;;;;7.22;1.35;;;;;;;;;;5073352;28;20032;-47
2022/02/08 07:11:24;;;;;;;4.68;1.00;;;;;;;;;;5074541;28;20054;-47
2022/02/08 07:13:52;;;;;;;7.90;2.30;;;;;;;;;;5082828;28;20028;-54
2022/02/08 07:16:18;;;;;;;4.70;0.88;;;;;;;;;;5072225;28;20365;-47
2022/02/08 07:18:44;;;;;;;2.72;0.82;;;;;;;;;;5095396;28;20089;-46
2022/02/08 07:21:11;;;;;;;7.93;1.77;;;;;;;;;;5094996;28;20036;-47
2022/02/08 07:23:37;;;;;;;3.03;0.98;;;;;;;;;;5066279;28;20024;-49
2022/02/08 07:26:03;;;;;;;4.25;1.20;;;;;;;;;;5075709;28;20127;-47
2022/02/08 07:28:30;;;;;;;3.47;1.05;;;;;;;;;;5094724;28;20043;-48
2022/02/08 07:31:10;;;;;;;2.20;0.93;;;;;;;;;;5090071;28;20033;-47
2022/02/08 07:33:40;;;;;;;4.70;0.98;;;;;;;;;;5058344;28;20020;-53
2022/02/08 07:36:20;;;;;;;5.82;1.48;;;;;;;;;;5054582;28;20040;-46
2022/02/08 07:38:46;;;;;;;4.45;1.40;;;;;;;;;;5073798;28;20469;-46
2022/02/08 07:43:38;;;;;;;2.97;1.20;;;;;;;;;;5073619;28;20108;-46
2022/02/08 07:46:06;;;;;;;3.88;1.67;;;;;;;;;;5072331;28;20091;-46
2022/02/08 07:48:32;;;;;;;7.88;1.33;;;;;;;;;;5073212;28;20036;-46
2022/02/08 07:50:58;;;;;;;3.92;1.27;;;;;;;;;;5072921;28;20085;-49
2022/02/08 07:53:27;;;;;;;5.85;1.45;;;;;;;;;;5073408;28;20103;-46
2022/02/08 07:55:54;;;;;;;3.55;1.13;;;;;;;;;;5072625;28;20041;-55
2022/02/08 07:58:20;;;;;;;4.88;1.02;;;;;;;;;;5072955;28;20046;-47
2022/02/08 08:00:46;;;;;;;3.17;1.30;;;;;;;;;;5073201;28;20104;-47
2022/02/08 08:03:12;;;;;;;2.72;1.10;;;;;;;;;;5072378;28;20099;-47
2022/02/08 08:05:39;;;;;;;2.88;1.08;;;;;;;;;;5072549;28;20030;-47
2022/02/08 08:08:06;;;;;;;4.22;1.40;;;;;;;;;;5071548;28;20040;-44
2022/02/08 08:10:32;;;;;;;2.05;0.63;;;;;;;;;;5073175;28;20097;-46
2022/02/08 08:12:59;;;;;;;2.92;0.95;;;;;;;;;;5072251;28;20016;-47
2022/02/08 08:18:01;;;;;;;2.92;0.98;;;;;;;;;;5070173;28;20033;-46
2022/02/08 08:20:27;;;;;;;2.50;1.25;;;;;;;;;;5072341;28;20392;-47
2022/02/08 08:22:53;;;;;;;3.33;1.23;;;;;;;;;;5071419;28;20493;-53
2022/02/08 08:25:19;;;;;;;2.28;0.82;;;;;;;;;;5072786;28;20025;-49
2022/02/08 08:27:45;;;;;;;2.20;1.15;;;;;;;;;;5072028;28;20407;-47
2022/02/08 08:30:12;;;;;;;2.55;1.20;;;;;;;;;;5071658;28;20024;-47
2022/02/08 08:32:39;;;;;;;3.13;1.00;;;;;;;;;;5071722;28;20039;-46
2022/02/08 08:35:06;;;;;;;5.90;1.15;;;;;;;;;;5071850;28;20094;-48
2022/02/08 08:37:37;;;;;;;3.60;1.27;;;;;;;;;;5072353;28;20045;-46
2022/02/08 08:40:13;;;;;;;3.92;1.10;;;;;;;;;;5071484;28;20082;-48
2022/02/08 08:42:51;;;;;;;2.90;0.82;;;;;;;;;;5072013;28;20021;-49
2022/02/08 08:48:34;;;;;;;2.05;1.10;;;;;;;;;;5072059;28;20025;-49
2022/02/08 08:51:16;;;;;;;2.95;0.93;;;;;;;;;;5067610;28;20074;-47
2022/02/08 08:53:46;;;;;;;2.78;1.20;;;;;;;;;;5073219;28;20543;-48
2022/02/08 08:56:12;;;;;;;4.38;1.35;;;;;;;;;;5071459;28;20028;-52
2022/02/08 08:58:43;;;;;;;3.10;0.88;;;;;;;;;;5072202;28;20035;-49
2022/02/08 09:01:10;;;;;;;5.03;1.00;;;;;;;;;;5071031;28;20025;-49
2022/02/08 09:03:36;;;;;;;2.85;0.70;;;;;;;;;;5071880;28;20367;-47
2022/02/08 09:06:02;;;;;;;3.08;0.82;;;;;;;;;;5070889;28;20465;-47
2022/02/08 09:08:31;;;;;;;2.88;1.38;;;;;;;;;;5071908;28;20102;-46
2022/02/08 09:11:05;;;;;;;2.55;0.80;;;;;;;;;;5070956;28;20036;-50
2022/02/08 09:13:48;;;;;;;1.65;0.90;;;;;;;;;;5071730;28;20025;-46
2022/02/08 09:16:27;;;;;;;2.70;0.80;;;;;;;;;;5071147;28;20067;-45
2022/02/08 09:27:33;;;;;;;2.90;1.40;;;;;;;;;;5071059;28;20038;-45
2022/02/08 09:30:03;;;;;;;2.50;1.00;;;;;;;;;;5071401;28;20417;-51
2022/02/08 09:32:42;;;;;;;3.20;1.35;;;;;;;;;;5071701;28;20031;-48
2022/02/08 09:35:08;;;;;;;2.22;0.85;;;;;;;;;;5070659;28;20063;-45
2022/02/08 09:37:35;;;;;;;2.42;1.05;;;;;;;;;;5071388;28;20045;-47
2022/02/08 09:40:01;;;;;;;3.97;1.30;;;;;;;;;;5070573;28;20025;-46
2022/02/08 09:42:27;;;;;;;2.55;0.80;;;;;;;;;;5064537;28;20025;-48
2022/02/08 09:44:54;;;;;;;1.83;0.85;;;;;;;;;;5071818;28;20035;-51
2022/02/08 09:47:30;;;;;;;2.80;0.90;;;;;;;;;;5071216;28;20024;-45
2022/02/08 09:50:03;;;;;;;1.20;0.60;;;;;;;;;;5071093;28;20123;-51
2022/02/08 09:52:29;;;;;;;3.25;0.95;;;;;;;;;;5074127;28;20032;-48
2022/02/08 09:54:56;;;;;;;2.53;1.02;;;;;;;;;;5076641;28;20031;-52
2022/02/08 09:57:22;;;;;;;3.72;1.20;;;;;;;;;;5077357;28;20482;-46
2022/02/08 09:59:48;;;;;;;4.95;1.38;;;;;;;;;;5077965;28;20077;-49
2022/02/08 10:02:18;;;;;;;2.47;0.70;;;;;;;;;;5076569;28;20025;-47
2022/02/08 10:04:44;;;;;;;2.20;0.88;;;;;;;;;;5078182;28;20043;-49
2022/02/08 10:07:13;;;;;;;2.63;1.17;;;;;;;;;;5076924;28;20039;-49
2022/02/08 10:09:40;;;;;;;2.13;0.73;;;;;;;;;;5077945;28;20059;-47
2022/02/08 10:12:07;;;;;;;1.48;0.77;;;;;;;;;;5076940;28;20044;-47
2022/02/08 10:18:51;;;;;;;2.67;0.50;;;;;;;;;;5077959;28;20103;-47
2022/02/08 10:22:56;;;;;;;3.30;1.30;;;;;;;;;;5077193;28;20035;-53
2022/02/08 10:25:44;;;;;;;1.25;0.70;;;;;;;;;;5077417;28;20111;-48
2022/02/08 10:28:29;;;;;;;2.47;0.88;;;;;;;;;;5077210;28;20028;-46
2022/02/08 10:31:22;;;;;;;4.72;1.63;;;;;;;;;;5077470;28;20078;-49
2022/02/08 10:39:18;;;;;;;2.30;0.95;;;;;;;;;;5056715;28;20087;-48
2022/02/08 10:41:47;;;;;;;3.78;1.23;;;;;;;;;;5075128;28;20417;-45
2022/02/08 10:44:13;;;;;;;2.15;0.90;;;;;;;;;;5065596;28;20025;-48
2022/02/08 10:46:39;;;;;;;1.45;0.70;;;;;;;;;;5076967;28;20027;-45
2022/02/08 10:49:06;;;;;;;2.17;0.85;;;;;;;;;;5076549;28;20040;-46
2022/02/08 10:51:39;;;;;;;3.03;0.93;;;;;;;;;;5077643;28;20078;-45
2022/02/08 10:54:11;;;;;;;2.50;1.08;;;;;;;;;;5076725;28;20071;-45
2022/02/08 10:56:40;;;;;;;5.05;0.77;;;;;;;;;;5077426;28;20112;-45
2022/02/08 10:59:30;;;;;;;1.50;0.50;;;;;;;;;;5076874;28;20021;-47
2022/02/08 11:02:02;;;;;;;1.63;0.70;;;;;;;;;;5076736;28;20041;-45
2022/02/08 11:04:45;;;;;;;1.17;0.68;;;;;;;;;;5074731;28;20082;-48
2022/02/08 11:07:19;;;;;;;4.03;1.10;;;;;;;;;;5073340;28;20036;-44
2022/02/08 11:10:10;;;;;;;3.92;1.05;;;;;;;;;;5073592;28;20393;-46
2022/02/08 11:20:47;;;;;;;1.77;0.70;;;;;;;;;;5072867;28;20031;-46
2022/02/08 11:23:26;;;;;;;0.88;0.73;;;;;;;;;;5072380;28;20067;-46
2022/02/08 11:25:54;;;;;;;3.28;1.00;;;;;;;;;;5073975;28;20008;-46
2022/02/08 11:31:05;;;;;;;1.08;0.77;;;;;;;;;;5054156;28;20036;-45
2022/02/08 11:47:10;;;;;;;1.73;0.70;;;;;;;;;;5073567;28;20029;-47
2022/02/08 11:50:08;;;;;;;2.30;0.70;;;;;;;;;;5073466;28;20025;-48
2022/02/08 11:55:49;;;;;;;3.53;0.73;;;;;;;;;;5072356;28;20029;-46
2022/02/08 11:58:24;;;;;;;3.17;0.90;;;;;;;;;;5052420;28;20033;-47
2022/02/08 12:01:00;;;;;;;0.98;0.50;;;;;;;;;;5053687;28;20018;-47
2022/02/08 12:07:05;;;;;;;2.63;0.98;;;;;;;;;;5066278;28;20047;-49
2022/02/08 12:08:55;;;;;;;1.50;0.95;;;;;;;;;;5060034;28;20378;-45
2022/02/08 12:11:38;;;;;;;1.55;0.75;;;;;;;;;;5073306;28;20162;-49
2022/02/08 12:28:43;;;;;;;2.28;0.70;;;;;;;;;;5010043;28;20100;-52
2022/02/08 12:31:26;;;;;;;1.50;0.80;;;;;;;;;;5055728;28;20473;-46
2022/02/08 12:36:44;;;;;;;1.23;0.90;;;;;;;;;;5071635;28;20035;-46
2022/02/08 12:55:52;;;;;;;1.98;0.57;;;;;;;;;;5072426;28;20032;-45
2022/02/08 12:58:35;;;;;;;1.75;0.60;;;;;;;;;;5071727;28;20075;-47
2022/02/08 13:01:30;;;;;;;1.15;0.57;;;;;;;;;;5071903;28;20016;-52
2022/02/08 13:04:16;;;;;;;1.48;0.73;;;;;;;;;;5071803;28;20028;-45
2022/02/08 14:07:01;;;;;;;0.90;0.52;;;;;;;;;;5071322;28;20362;-46
2022/02/08 14:25:15;;;;;;;1.33;0.45;;;;;;;;;;5071240;28;20124;-45
2022/02/08 14:30:27;;;;;;;1.90;0.50;;;;;;;;;;5070857;28;20086;-45
2022/02/08 14:57:43;;;;;;;1.63;0.47;;;;;;;;;;5074551;28;20409;-46
2022/02/08 15:10:43;;;;;;;4.22;1.10;;;;;;;;;;5067954;28;20041;-45
2022/02/08 15:13:11;;;;;;;1.50;0.70;;;;;;;;;;5054796;28;20416;-47
2022/02/08 15:18:23;;;;;;;2.42;0.80;;;;;;;;;;5056114;28;20048;-46
2022/02/08 15:20:49;;;;;;;0.75;0.45;;;;;;;;;;5056001;28;20029;-46
2022/02/08 15:23:18;;;;;;;1.08;0.50;;;;;;;;;;5073319;28;20530;-46
2022/02/08 15:25:45;;;;;;;4.45;0.70;;;;;;;;;;5074314;28;20032;-45
2022/02/08 15:28:11;;;;;;;3.65;1.10;;;;;;;;;;5073657;28;20075;-46
2022/02/08 15:30:37;;;;;;;1.50;0.50;;;;;;;;;;5073646;28;20036;-46
2022/02/08 15:33:07;;;;;;;3.33;0.70;;;;;;;;;;5074419;28;20032;-47
2022/02/08 15:35:34;;;;;;;1.33;0.40;;;;;;;;;;5074267;28;20017;-45
2022/02/08 15:38:00;;;;;;;1.30;0.68;;;;;;;;;;5074046;28;20057;-44
2022/02/08 15:40:27;;;;;;;1.45;0.50;;;;;;;;;;5073277;28;20049;-45
2022/02/08 15:42:53;;;;;;;1.38;0.35;;;;;;;;;;5074040;28;20501;-45
2022/02/08 15:45:27;;;;;;;1.50;0.63;;;;;;;;;;5073051;28;20358;-46
2022/02/08 15:47:55;;;;;;;2.83;0.90;;;;;;;;;;5073621;28;20016;-44
2022/02/08 15:50:30;;;;;;;1.42;0.82;;;;;;;;;;5072653;28;20108;-43
2022/02/08 15:58:20;;;;;;;3.13;1.02;;;;;;;;;;5073470;28;19912;-47
2022/02/08 16:08:46;;;;;;;2.70;0.88;;;;;;;;;;5073563;28;20036;-44
2022/02/08 16:18:48;;;;;;;2.47;0.70;;;;;;;;;;5052436;28;20041;-43
2022/02/08 16:26:41;;;;;;;1.70;0.50;;;;;;;;;;5072489;28;20281;-45
2022/02/08 16:29:32;;;;;;;1.67;0.40;;;;;;;;;;5073211;28;20025;-46
2022/02/08 16:32:24;;;;;;;2.53;0.70;;;;;;;;;;5072170;28;20032;-46
2022/02/08 16:59:05;;;;;;;4.30;1.75;;;;;;;;;;5072724;28;20040;-49
2022/02/08 17:01:32;;;;;;;3.97;3.05;;;;;;;;;;5070963;28;20025;-49
2022/02/08 17:03:59;;;;;;;5.97;3.30;;;;;;;;;;5071756;28;20021;-47
2022/02/08 17:06:30;;;;;;;6.57;4.43;;;;;;;;;;5071130;28;20033;-50
2022/02/08 17:09:05;;;;;;;6.55;3.60;;;;;;;;;;5072506;28;20058;-46
2022/02/08 17:11:39;;;;;;;6.80;3.38;;;;;;;;;;5071838;28;20052;-46
2022/02/08 17:46:21;;;;;;;2.25;0.80;;;;;;;;;;5091371;28;20039;-44
2022/02/08 17:48:49;;;;;;;5.47;1.58;;;;;;;;;;5096795;28;20032;-49
2022/02/08 17:51:16;;;;;;;1.58;0.75;;;;;;;;;;5111579;28;20042;-48
2022/02/08 17:53:42;;;;;;;2.80;0.80;;;;;;;;;;5112565;28;20019;-50
2022/02/08 17:56:08;;;;;;;3.15;0.77;;;;;;;;;;5092691;28;20024;-50
2022/02/08 17:58:36;;;;;;;4.22;1.73;;;;;;;;;;5091025;28;20024;-48
2022/02/08 18:01:02;;;;;;;1.38;0.60;;;;;;;;;;5092052;28;20016;-50
2022/02/08 18:03:28;;;;;;;1.13;0.85;;;;;;;;;;5090963;28;20021;-48
2022/02/08 18:05:54;;;;;;;3.60;0.80;;;;;;;;;;5092003;28;20114;-49
2022/02/08 18:08:23;;;;;;;2.42;1.00;;;;;;;;;;5091084;28;20111;-47
2022/02/08 18:10:54;;;;;;;2.22;1.20;;;;;;;;;;5091986;28;20029;-48
2022/02/08 18:13:21;;;;;;;2.78;0.75;;;;;;;;;;5092720;28;20050;-49
2022/02/08 18:15:47;;;;;;;2.78;0.60;;;;;;;;;;5095989;28;20024;-52
2022/02/08 18:18:26;;;;;;;5.80;0.60;;;;;;;;;;5095012;28;20028;-49
2022/02/08 18:21:20;;;;;;;6.68;1.08;;;;;;;;;;5095964;28;20064;-51
2022/02/08 18:24:17;;;;;;;1.67;0.73;;;;;;;;;;5095069;28;20060;-46
2022/02/08 19:12:55;;;;;;;1.00;0.70;;;;;;;;;;5073968;28;20021;-46
2022/02/08 19:20:41;;;;;;;7.22;1.15;;;;;;;;;;5053154;28;20082;-49
2022/02/08 19:23:07;;;;;;;;;;;;;;;;;;5054169;28;20486;-47
2022/02/08 19:25:32;;;;;;;5.43;1.00;;;;;;;;;;5066556;28;19911;-45
2022/02/08 19:28:01;;;;;;;6.85;1.13;;;;;;;;;;5073554;28;20027;-48
2022/02/08 19:30:27;;;;;;;1.45;0.65;;;;;;;;;;5073689;28;20029;-46
2022/02/08 19:32:53;;;;;;;1.52;0.82;;;;;;;;;;5074193;28;20119;-46
2022/02/08 19:35:20;;;;;;;1.48;0.90;;;;;;;;;;5073124;28;20033;-46
2022/02/08 19:37:47;;;;;;;4.47;1.33;;;;;;;;;;5073921;28;20049;-46
2022/02/08 19:40:14;;;;;;;2.42;0.70;;;;;;;;;;5073634;28;20508;-47
2022/02/08 19:42:40;;;;;;;3.42;0.70;;;;;;;;;;5072860;28;20027;-49
2022/02/08 19:45:21;;;;;;;4.65;0.98;;;;;;;;;;5072163;28;20460;-48
2022/02/08 19:47:48;;;;;;;2.10;1.00;;;;;;;;;;5073377;28;20059;-49
2022/02/08 19:50:14;;;;;;;5.78;0.73;;;;;;;;;;5073241;28;20049;-48
2022/02/08 19:52:41;;;;;;;1.73;0.73;;;;;;;;;;5073345;28;20032;-46
2022/02/08 19:57:52;;;;;;;2.67;1.23;;;;;;;;;;5073391;28;20040;-46
2022/02/08 20:00:24;;;;;;;2.45;0.80;;;;;;;;;;5069710;28;20033;-47
2022/02/08 20:02:54;;;;;;;1.50;0.85;;;;;;;;;;5073999;28;20047;-47
2022/02/08 20:05:20;;;;;;;8.75;2.40;;;;;;;;;;5072904;28;20059;-47
2022/02/08 20:07:46;;;;;;;3.45;1.00;;;;;;;;;;5073547;28;20023;-47
2022/02/08 20:10:17;;;;;;;1.92;0.80;;;;;;;;;;5073469;28;20044;-48
2022/02/08 20:12:43;;;;;;;7.38;1.38;;;;;;;;;;5064054;28;20088;-45
2022/02/08 20:15:09;;;;;;;5.03;1.38;;;;;;;;;;5053851;28;20418;-46
2022/02/08 20:17:36;;;;;;;3.10;0.65;;;;;;;;;;5052881;28;20102;-46
2022/02/08 20:20:08;;;;;;;1.88;0.70;;;;;;;;;;5053489;28;20036;-46
2022/02/08 20:22:34;;;;;;;2.72;0.75;;;;;;;;;;5052701;28;20024;-46
2022/02/08 20:25:04;;;;;;;1.52;0.90;;;;;;;;;;5053298;28;20462;-46
2022/02/08 20:27:50;;;;;;;1.98;0.95;;;;;;;;;;5052743;28;20071;-45
2022/02/08 20:30:20;;;;;;;2.08;0.70;;;;;;;;;;5071292;28;20123;-48
2022/02/08 20:32:47;;;;;;;2.47;0.80;;;;;;;;;;5070757;28;20025;-45
2022/02/08 20:35:13;;;;;;;2.65;0.93;;;;;;;;;;5053249;28;20085;-46
2022/02/08 20:37:41;;;;;;;2.97;1.23;;;;;;;;;;5061362;28;20517;-45
2022/02/08 20:40:08;;;;;;;2.13;1.10;;;;;;;;;;5073166;28;20024;-45
2022/02/08 20:42:34;;;;;;;3.63;1.20;;;;;;;;;;5078918;28;20408;-48
2022/02/08 20:45:00;;;;;;;2.63;1.10;;;;;;;;;;5093343;28;20027;-46
2022/02/08 20:47:27;;;;;;;2.65;0.60;;;;;;;;;;5092625;28;20024;-47
2022/02/08 20:50:10;;;;;;;3.70;1.00;;;;;;;;;;5093045;28;20066;-46
2022/02/08 20:52:42;;;;;;;1.20;0.68;;;;;;;;;;5092230;28;20283;-46
2022/02/08 20:55:11;;;;;;;1.58;0.80;;;;;;;;;;5093200;28;20449;-45
2022/02/08 20:57:38;;;;;;;3.20;0.88;;;;;;;;;;5092281;28;20039;-45
2022/02/08 21:00:09;;;;;;;3.03;1.30;;;;;;;;;;5092788;28;20427;-46
2022/02/08 21:02:42;;;;;;;3.00;1.25;;;;;;;;;;5092111;28;20041;-45
2022/02/08 21:07:41;;;;;;;3.33;1.45;;;;;;;;;;5088043;28;20028;-47
2022/02/08 21:10:07;;;;;;;5.30;1.15;;;;;;;;;;5092619;28;20086;-49
2022/02/08 21:12:50;;;;;;;2.47;0.98;;;;;;;;;;5092016;28;20028;-51
2022/02/08 21:15:17;;;;;;;3.40;1.35;;;;;;;;;;5092861;28;20016;-48
2022/02/08 21:17:43;;;;;;;4.28;1.30;;;;;;;;;;5092203;28;20052;-48
2022/02/08 21:20:10;;;;;;;1.60;1.35;;;;;;;;;;5092576;28;20055;-50
2022/02/08 21:22:38;;;;;;;1.85;1.10;;;;;;;;;;5091812;28;20024;-48
2022/02/08 21:25:04;;;;;;;3.67;1.35;;;;;;;;;;5092166;28;20423;-49
2022/02/08 21:27:32;;;;;;;1.73;0.70;;;;;;;;;;5091784;28;20024;-49
2022/02/08 21:47:18;;;;;;;1.35;0.73;;;;;;;;;;5070527;28;20029;-51
2022/02/08 21:51:53;;;;;;;2.83;1.30;;;;;;;;;;5071334;28;20037;-52
2022/02/08 21:54:20;;;;;;;1.17;0.85;;;;;;;;;;5071177;28;20024;-51
2022/02/08 21:56:46;;;;;;;2.22;0.70;;;;;;;;;;5071052;28;20029;-49
2022/02/08 21:59:12;;;;;;;2.35;1.17;;;;;;;;;;5071714;28;20028;-51
2022/02/08 22:01:38;;;;;;;4.50;1.65;;;;;;;;;;5071215;28;20067;-50
2022/02/08 22:04:04;;;;;;;4.90;0.95;;;;;;;;;;5069533;28;20106;-49
2022/02/08 22:06:30;;;;;;;4.05;1.30;;;;;;;;;;5070934;28;20036;-52
2022/02/08 22:08:58;;;;;;;1.73;0.85;;;;;;;;;;5071392;28;20043;-51
2022/02/08 22:22:42;;;;;;;1.60;0.80;;;;;;;;;;5051033;28;20100;-50
2022/02/08 22:33:05;;;;;;;1.33;0.63;;;;;;;;;;5051801;28;20387;-50
2022/02/08 22:35:37;;;;;;;2.72;1.30;;;;;;;;;;5051034;28;20433;-50
2022/02/08 22:38:20;;;;;;;5.10;1.48;;;;;;;;;;5056680;28;20044;-50
2022/02/08 22:40:52;;;;;;;1.58;1.08;;;;;;;;;;5071099;28;20108;-49
2022/02/08 22:43:23;;;;;;;1.80;0.80;;;;;;;;;;5071545;28;20448;-50
2022/02/08 22:45:49;;;;;;;3.00;1.13;;;;;;;;;;5071120;28;20028;-50
2022/02/08 22:48:15;;;;;;;2.22;1.50;;;;;;;;;;5071657;28;20382;-52
2022/02/08 22:50:41;;;;;;;2.72;1.27;;;;;;;;;;5071059;28;20027;-51
2022/02/08 22:53:07;;;;;;;4.43;1.33;;;;;;;;;;5071060;28;20462;-51
2022/02/08 22:55:34;;;;;;;2.03;1.10;;;;;;;;;;5071008;28;20112;-51
2022/02/08 22:58:07;;;;;;;3.83;1.02;;;;;;;;;;5071754;28;20420;-50
2022/02/08 23:00:35;;;;;;;3.97;1.00;;;;;;;;;;5072500;28;20074;-51
2022/02/08 23:03:02;;;;;;;1.67;1.10;;;;;;;;;;5074839;28;20036;-50
2022/02/08 23:05:28;;;;;;;1.65;1.13;;;;;;;;;;5074534;28;20024;-49
2022/02/08 23:07:54;;;;;;;2.67;1.02;;;;;;;;;;5074831;28;20111;-48